Terminal Aerodrome Forecast
Issued by NWS

Home | Current Version | Previous Version | Text Only | Print | Product List | Glossary Off
Versions: 1 2 3 4 5 6 7 8 9 10 11 12 13 14 15 16 17 18 19 20 21 22 23 24 25 26 27 28 29 30 31 32 33

000
FTUS43 KLOT 151600 AAB
TAFDPA
TAF AMD
KDPA 151616Z 1516/1612 19004KT P6SM SCT040 OVC060
     FM151900 25006KT P6SM VCSH SCT020 OVC035
      TEMPO 1519/1522 -SHRA SCT010 OVC018
     FM152200 36010KT P6SM SCT012 BKN020 BKN040
     FM160200 34007KT P6SM SCT015=

USA.gov is the U.S. government's official web portal to all federal, state and local government web resources and services.